Time;durP1;ratioP1;P1;durP2;ratioP2;P2;SDS_P1;SDS_P2;PMS_P1;PMS_P2;Temp;Humidity;BMP_temperature;BMP_pressure;BME280_temperature;BME280_humidity;BME280_pressure;Samples;Min_cycle;Max_cycle;Signal;HPM_P1;HPM_P2
2021/03/25 00:00:56;;;;;;;4.17;2.67;;;2.20;99.90;;;;;;5077230;28;20418;-78
2021/03/25 00:03:22;;;;;;;3.70;2.60;;;2.10;99.90;;;;;;5076043;28;20182;-77
2021/03/25 00:05:52;;;;;;;4.60;2.97;;;2.10;99.90;;;;;;5077235;28;20271;-77
2021/03/25 00:08:22;;;;;;;3.90;2.83;;;2.10;99.90;;;;;;5076764;28;20201;-78
2021/03/25 00:10:47;;;;;;;5.93;3.00;;;2.00;99.90;;;;;;5075784;28;20260;-77
2021/03/25 00:13:13;;;;;;;6.00;2.93;;;1.80;99.90;;;;;;5077249;28;20208;-77
2021/03/25 00:15:39;;;;;;;3.17;2.13;;;1.80;99.90;;;;;;5077033;28;20612;-78
2021/03/25 00:18:06;;;;;;;3.20;2.30;;;1.80;99.90;;;;;;5075685;28;20217;-78
2021/03/25 00:20:32;;;;;;;3.53;2.60;;;1.90;99.90;;;;;;5075690;28;20217;-78
2021/03/25 00:22:57;;;;;;;5.77;2.63;;;1.80;99.90;;;;;;5076862;28;20216;-77
2021/03/25 00:25:27;;;;;;;4.23;2.70;;;1.80;99.90;;;;;;5077210;28;20181;-77
2021/03/25 00:27:53;;;;;;;4.47;2.43;;;1.90;99.90;;;;;;5075150;28;20221;-77
2021/03/25 00:30:22;;;;;;;3.80;2.33;;;1.90;99.90;;;;;;5076885;28;20792;-78
2021/03/25 00:32:48;;;;;;;3.37;2.10;;;1.90;99.90;;;;;;5075338;28;20183;-77
2021/03/25 00:35:14;;;;;;;3.60;2.20;;;1.90;99.90;;;;;;5076829;28;20732;-77
2021/03/25 00:37:40;;;;;;;3.53;2.33;;;1.80;99.90;;;;;;5076313;28;20533;-77
2021/03/25 00:40:08;;;;;;;3.03;2.30;;;1.90;99.90;;;;;;5076399;28;20598;-77
2021/03/25 00:42:34;;;;;;;2.33;2.00;;;1.90;99.90;;;;;;5075084;28;20238;-78
2021/03/25 00:45:00;;;;;;;3.93;2.07;;;1.80;99.90;;;;;;5076400;28;20185;-78
2021/03/25 00:47:25;;;;;;;3.33;2.10;;;1.90;99.90;;;;;;5076074;28;20196;-78
2021/03/25 00:49:51;;;;;;;3.27;2.03;;;1.80;99.90;;;;;;5076337;28;20577;-77
2021/03/25 00:52:17;;;;;;;3.30;2.20;;;1.70;99.90;;;;;;5076183;28;20510;-77
2021/03/25 00:54:43;;;;;;;2.40;1.67;;;1.60;99.90;;;;;;5074936;28;20205;-77
2021/03/25 00:57:09;;;;;;;3.00;2.10;;;1.60;99.90;;;;;;5074826;28;20621;-77
2021/03/25 00:59:34;;;;;;;3.27;2.13;;;1.50;99.90;;;;;;5075911;28;20211;-77
2021/03/25 01:02:00;;;;;;;3.57;2.20;;;1.50;99.90;;;;;;5073987;28;20230;-77
2021/03/25 01:04:26;;;;;;;7.13;1.90;;;1.50;99.90;;;;;;5076048;28;20181;-77
2021/03/25 01:06:52;;;;;;;2.47;2.03;;;1.60;99.90;;;;;;5075856;28;20200;-78
2021/03/25 01:09:24;;;;;;;3.37;2.33;;;1.50;99.90;;;;;;5074501;28;20719;-77
2021/03/25 01:11:50;;;;;;;5.73;2.03;;;1.50;99.90;;;;;;5076153;28;20216;-77
2021/03/25 01:14:19;;;;;;;2.77;2.00;;;1.50;99.90;;;;;;5074556;28;20283;-77
2021/03/25 01:16:46;;;;;;;5.77;2.40;;;1.60;99.90;;;;;;5074247;28;20220;-78
2021/03/25 01:19:17;;;;;;;3.07;2.10;;;1.60;99.90;;;;;;5075621;28;20208;-77
2021/03/25 01:21:43;;;;;;;4.73;1.87;;;1.70;99.90;;;;;;5075738;28;20214;-77
2021/03/25 01:24:09;;;;;;;2.50;1.77;;;1.60;99.90;;;;;;5075605;28;20181;-77
2021/03/25 01:26:35;;;;;;;4.27;2.17;;;1.50;99.90;;;;;;5075538;28;20185;-78
2021/03/25 01:29:01;;;;;;;2.70;1.97;;;1.50;99.90;;;;;;5075318;28;20451;-77
2021/03/25 01:31:28;;;;;;;3.60;2.47;;;1.50;99.90;;;;;;5075516;28;20263;-77
2021/03/25 01:33:54;;;;;;;2.40;1.90;;;1.50;99.90;;;;;;5075509;28;20892;-77
2021/03/25 01:36:20;;;;;;;2.33;1.73;;;1.40;99.90;;;;;;5075381;28;20231;-78
2021/03/25 01:38:47;;;;;;;2.63;1.80;;;1.40;99.90;;;;;;5073909;28;20228;-77
2021/03/25 01:41:14;;;;;;;3.37;2.10;;;1.40;99.90;;;;;;5075670;28;20426;-77
2021/03/25 01:43:42;;;;;;;1.90;1.53;;;1.40;99.90;;;;;;5075158;28;20181;-77
2021/03/25 01:46:26;;;;;;;3.40;1.60;;;1.50;99.90;;;;;;5074066;28;20607;-77
2021/03/25 01:48:55;;;;;;;1.93;1.53;;;1.50;99.90;;;;;;5075045;28;20629;-77
2021/03/25 01:51:27;;;;;;;1.80;1.33;;;1.50;99.90;;;;;;5073900;28;20186;-77
2021/03/25 01:54:21;;;;;;;2.47;1.50;;;1.60;99.90;;;;;;5075042;28;20173;-77
2021/03/25 01:57:12;;;;;;;2.57;1.90;;;1.60;99.90;;;;;;5062367;28;20431;-77
2021/03/25 02:00:02;;;;;;;4.30;1.60;;;1.70;99.90;;;;;;5075029;28;20403;-77
2021/03/25 02:03:00;;;;;;;1.90;1.50;;;1.70;99.90;;;;;;5074828;28;20923;-77
2021/03/25 02:05:37;;;;;;;1.10;1.00;;;1.70;99.90;;;;;;5057333;28;20547;-77
2021/03/25 02:08:40;;;;;;;2.47;1.50;;;1.80;99.90;;;;;;5074866;28;20200;-77
2021/03/25 02:11:21;;;;;;;1.40;1.30;;;1.80;99.90;;;;;;5073299;28;20622;-77
2021/03/25 02:14:27;;;;;;;1.80;1.43;;;1.80;99.90;;;;;;5074664;28;20857;-77
2021/03/25 02:17:23;;;;;;;1.27;1.17;;;1.70;99.90;;;;;;5073131;28;20220;-78
2021/03/25 02:20:07;;;;;;;3.43;1.70;;;1.60;99.90;;;;;;5074607;28;20399;-77
2021/03/25 02:22:51;;;;;;;3.40;1.60;;;1.60;99.90;;;;;;5073939;28;20424;-78
2021/03/25 02:25:19;;;;;;;1.57;1.30;;;1.50;99.90;;;;;;5081903;28;20251;-78
2021/03/25 02:28:16;;;;;;;1.90;1.60;;;1.50;99.90;;;;;;5089140;28;20208;-78
2021/03/25 02:30:44;;;;;;;4.00;1.60;;;1.50;99.90;;;;;;5085573;28;20300;-77
2021/03/25 02:33:14;;;;;;;3.03;1.70;;;1.50;99.90;;;;;;5074311;28;20423;-77
2021/03/25 02:35:50;;;;;;;2.80;1.50;;;1.50;99.90;;;;;;5074278;28;20181;-77
2021/03/25 02:38:22;;;;;;;2.50;1.53;;;1.50;99.90;;;;;;5072771;28;20283;-77
2021/03/25 02:40:52;;;;;;;3.43;1.60;;;1.50;99.90;;;;;;5074098;28;20776;-77
2021/03/25 02:43:25;;;;;;;2.07;1.40;;;1.50;99.90;;;;;;5074171;28;20880;-77
2021/03/25 02:46:00;;;;;;;1.37;1.17;;;1.50;99.90;;;;;;5072862;28;20403;-77
2021/03/25 02:48:28;;;;;;;1.77;1.50;;;1.60;99.90;;;;;;5073681;28;20204;-77
2021/03/25 02:51:06;;;;;;;2.87;1.33;;;1.70;99.90;;;;;;5072710;28;20178;-77
2021/03/25 02:53:36;;;;;;;1.97;1.00;;;1.70;99.90;;;;;;5074002;28;20171;-77
2021/03/25 02:56:11;;;;;;;1.97;1.17;;;1.70;99.90;;;;;;5072684;28;20188;-77
2021/03/25 02:58:39;;;;;;;2.47;1.27;;;1.80;99.90;;;;;;5072218;28;20446;-77
2021/03/25 03:01:10;;;;;;;3.30;1.40;;;1.80;99.90;;;;;;5073149;28;20238;-77
2021/03/25 03:03:44;;;;;;;2.50;1.43;;;1.80;99.90;;;;;;5073973;28;20889;-77
2021/03/25 03:06:19;;;;;;;1.30;1.00;;;1.80;99.90;;;;;;5073813;28;20162;-77
2021/03/25 03:08:47;;;;;;;2.13;1.40;;;1.70;99.90;;;;;;5073454;28;20227;-77
2021/03/25 03:11:19;;;;;;;1.37;1.07;;;1.70;99.90;;;;;;5072415;28;20173;-77
2021/03/25 03:13:50;;;;;;;2.13;1.40;;;1.60;99.90;;;;;;5073680;28;20161;-77
2021/03/25 03:16:21;;;;;;;4.37;1.30;;;1.60;99.90;;;;;;5073542;28;20184;-77
2021/03/25 03:19:13;;;;;;;2.13;1.37;;;1.50;99.90;;;;;;5073467;28;20469;-77
2021/03/25 03:21:41;;;;;;;3.67;1.17;;;1.50;99.90;;;;;;5088535;28;20750;-77
2021/03/25 03:24:08;;;;;;;1.60;1.23;;;1.50;99.90;;;;;;5073557;28;20178;-77
2021/03/25 03:26:40;;;;;;;4.60;1.10;;;1.50;99.90;;;;;;5073042;28;20185;-77
2021/03/25 03:29:07;;;;;;;1.43;1.10;;;1.50;99.90;;;;;;5072051;28;20201;-77
2021/03/25 03:31:50;;;;;;;2.70;1.37;;;1.50;99.90;;;;;;5072210;28;20176;-77
2021/03/25 03:34:24;;;;;;;1.40;1.20;;;1.50;99.90;;;;;;5073445;28;20795;-77
2021/03/25 03:36:54;;;;;;;2.53;1.50;;;1.50;99.90;;;;;;5073430;28;20436;-77
2021/03/25 03:39:24;;;;;;;2.17;1.23;;;1.50;99.90;;;;;;5071910;28;20411;-77
2021/03/25 03:42:06;;;;;;;1.07;0.97;;;1.50;99.90;;;;;;5073394;28;20411;-77
2021/03/25 03:44:39;;;;;;;2.87;1.10;;;1.50;99.90;;;;;;5072114;28;20403;-77
2021/03/25 03:47:06;;;;;;;2.00;1.07;;;1.50;99.90;;;;;;5072038;28;20443;-77
2021/03/25 03:49:39;;;;;;;2.30;1.20;;;1.50;99.90;;;;;;5072191;28;20458;-77
2021/03/25 03:52:08;;;;;;;1.97;1.33;;;1.60;99.90;;;;;;5072059;28;20560;-77
2021/03/25 03:54:35;;;;;;;6.80;1.40;;;1.60;99.90;;;;;;5073255;28;20493;-77
2021/03/25 03:57:38;;;;;;;1.63;1.53;;;1.60;99.90;;;;;;5071953;28;20431;-77
2021/03/25 04:00:19;;;;;;;2.00;1.30;;;1.60;99.90;;;;;;5073228;28;20403;-77
2021/03/25 04:03:09;;;;;;;3.57;1.30;;;1.60;99.90;;;;;;5073126;28;20468;-77
2021/03/25 04:05:39;;;;;;;1.63;1.30;;;1.60;99.90;;;;;;5073136;28;20423;-77
2021/03/25 04:08:29;;;;;;;2.37;1.77;;;1.60;99.90;;;;;;5071486;28;20458;-77
2021/03/25 04:11:23;;;;;;;2.57;1.40;;;1.60;99.90;;;;;;5073367;28;20422;-77
2021/03/25 04:13:56;;;;;;;2.63;1.30;;;1.60;99.90;;;;;;5073119;28;20395;-77
2021/03/25 04:16:27;;;;;;;1.50;1.37;;;1.60;99.90;;;;;;5073425;28;20426;-77
2021/03/25 04:19:06;;;;;;;1.63;1.40;;;1.60;99.90;;;;;;5071687;28;20415;-77
2021/03/25 04:21:36;;;;;;;1.37;1.23;;;1.60;99.90;;;;;;5073565;28;20440;-77
2021/03/25 04:24:17;;;;;;;2.90;1.70;;;1.50;99.90;;;;;;5073124;28;20896;-77
2021/03/25 04:26:56;;;;;;;2.30;1.40;;;1.50;99.90;;;;;;5072933;28;20431;-77
2021/03/25 04:29:30;;;;;;;2.10;1.73;;;1.50;99.90;;;;;;5072809;28;20439;-77
2021/03/25 04:31:57;;;;;;;1.73;1.63;;;1.40;99.90;;;;;;5071630;28;20412;-77
2021/03/25 04:34:24;;;;;;;2.10;1.40;;;1.40;99.90;;;;;;5071606;28;20442;-77
2021/03/25 04:36:51;;;;;;;3.87;1.33;;;1.30;99.90;;;;;;5073209;28;20431;-77
2021/03/25 04:39:19;;;;;;;2.23;1.13;;;1.20;99.90;;;;;;5076196;28;20407;-77
2021/03/25 04:41:46;;;;;;;3.30;1.80;;;1.30;99.90;;;;;;5076339;28;20410;-77
2021/03/25 04:44:30;;;;;;;1.90;1.20;;;1.30;99.90;;;;;;5076685;28;20488;-77
2021/03/25 04:47:04;;;;;;;2.10;1.70;;;1.20;99.90;;;;;;5076258;28;20522;-77
2021/03/25 04:49:45;;;;;;;1.73;1.10;;;1.20;99.90;;;;;;5076199;28;20470;-77
2021/03/25 04:52:17;;;;;;;1.33;1.13;;;1.30;99.90;;;;;;5076926;28;20478;-77
2021/03/25 04:54:43;;;;;;;2.10;1.60;;;1.40;99.90;;;;;;5076185;28;20486;-77
2021/03/25 04:57:24;;;;;;;1.87;1.60;;;1.40;99.90;;;;;;5074934;28;20526;-77
2021/03/25 04:59:52;;;;;;;1.20;1.03;;;1.50;99.90;;;;;;5074952;28;20173;-77
2021/03/25 05:02:18;;;;;;;1.20;1.10;;;1.40;99.90;;;;;;5076003;28;20775;-77
2021/03/25 05:04:49;;;;;;;1.33;1.20;;;1.50;99.90;;;;;;5074820;28;20415;-77
2021/03/25 05:07:24;;;;;;;2.33;1.23;;;1.50;99.90;;;;;;5075889;28;20200;-77
2021/03/25 05:09:51;;;;;;;1.40;1.30;;;1.60;99.90;;;;;;5075984;28;20398;-77
2021/03/25 05:12:18;;;;;;;2.00;1.50;;;1.60;99.90;;;;;;5075988;28;20816;-77
2021/03/25 05:14:46;;;;;;;2.17;1.83;;;1.60;99.90;;;;;;5076355;28;20392;-77
2021/03/25 05:17:21;;;;;;;2.40;2.00;;;1.60;99.90;;;;;;5074617;28;20462;-77
2021/03/25 05:20:05;;;;;;;3.63;1.47;;;1.60;99.90;;;;;;5077994;28;20441;-78
2021/03/25 05:22:30;;;;;;;3.13;1.97;;;1.60;99.90;;;;;;5078612;28;20422;-78
2021/03/25 05:25:28;;;;;;;2.70;1.90;;;1.70;99.90;;;;;;5078442;28;20415;-77
2021/03/25 05:27:59;;;;;;;2.93;1.37;;;1.70;99.90;;;;;;5069001;28;20216;-78
2021/03/25 05:30:32;;;;;;;2.70;1.73;;;1.70;99.90;;;;;;5080057;28;20422;-77
2021/03/25 05:33:03;;;;;;;2.37;1.47;;;1.70;99.90;;;;;;5089619;28;20396;-77
2021/03/25 05:35:42;;;;;;;4.23;1.77;;;1.80;99.90;;;;;;5087407;28;20426;-78
2021/03/25 05:38:08;;;;;;;2.60;1.20;;;1.80;99.90;;;;;;5075640;28;20489;-77
2021/03/25 05:40:37;;;;;;;2.97;1.80;;;1.80;99.90;;;;;;5074386;28;20784;-77
2021/03/25 05:43:21;;;;;;;1.60;1.50;;;1.80;99.90;;;;;;5075969;28;20431;-77
2021/03/25 05:46:01;;;;;;;1.43;1.17;;;1.80;99.90;;;;;;5075404;28;20403;-78
2021/03/25 05:48:35;;;;;;;1.70;1.60;;;1.90;99.90;;;;;;5073591;28;20459;-77
2021/03/25 05:51:08;;;;;;;4.93;1.33;;;1.90;99.90;;;;;;5073992;28;20438;-77
2021/03/25 05:53:40;;;;;;;2.93;1.63;;;1.90;99.90;;;;;;5074212;28;20422;-78
2021/03/25 05:56:28;;;;;;;2.00;1.50;;;2.00;99.90;;;;;;5075387;28;20392;-77
2021/03/25 05:59:01;;;;;;;2.93;1.83;;;2.00;99.90;;;;;;5075141;28;20430;-77
2021/03/25 06:01:27;;;;;;;1.60;1.50;;;2.00;99.90;;;;;;5075085;28;20904;-77
2021/03/25 06:04:16;;;;;;;2.37;1.47;;;2.00;99.90;;;;;;5073750;28;20524;-77
2021/03/25 06:07:08;;;;;;;3.63;1.40;;;2.10;99.90;;;;;;5074799;28;20560;-77
2021/03/25 06:10:06;;;;;;;2.17;1.50;;;2.20;99.90;;;;;;5058955;28;20561;-77
2021/03/25 06:13:17;;;;;;;1.80;1.40;;;2.20;99.90;;;;;;5074757;28;20821;-78
2021/03/25 06:15:59;;;;;;;1.50;1.40;;;2.30;99.90;;;;;;5030426;28;20956;-77
2021/03/25 06:19:07;;;;;;;2.40;1.60;;;2.30;99.90;;;;;;5054536;28;20968;-78
2021/03/25 06:21:52;;;;;;;1.10;1.00;;;2.50;99.90;;;;;;5051225;28;20982;-77
2021/03/25 06:24:51;;;;;;;7.63;1.47;;;2.50;99.90;;;;;;5054604;28;20441;-77
2021/03/25 06:27:23;;;;;;;2.00;1.30;;;2.70;99.90;;;;;;5054464;28;20432;-77
2021/03/25 06:29:51;;;;;;;2.57;1.60;;;2.70;99.90;;;;;;5053306;28;20474;-77
2021/03/25 06:32:29;;;;;;;2.80;1.63;;;2.80;99.90;;;;;;5054619;28;20407;-78
2021/03/25 06:35:00;;;;;;;2.07;1.63;;;2.90;99.90;;;;;;5053470;28;20523;-77
2021/03/25 06:37:42;;;;;;;2.40;1.30;;;3.00;99.90;;;;;;5054199;28;20937;-78
2021/03/25 06:40:26;;;;;;;2.27;1.60;;;3.20;99.90;;;;;;5054256;28;20909;-77
2021/03/25 06:43:00;;;;;;;3.13;1.90;;;3.20;99.90;;;;;;5054569;28;20389;-77
2021/03/25 06:45:37;;;;;;;1.50;1.33;;;3.40;99.90;;;;;;5054381;28;20795;-77
2021/03/25 06:48:23;;;;;;;2.33;1.57;;;3.50;99.90;;;;;;5054329;28;20459;-76
2021/03/25 06:50:55;;;;;;;1.80;1.60;;;3.70;99.90;;;;;;5054666;28;20416;-77
2021/03/25 06:53:28;;;;;;;2.50;1.57;;;3.80;99.90;;;;;;5053996;28;20473;-77
2021/03/25 06:56:01;;;;;;;2.00;1.80;;;3.90;99.90;;;;;;5055859;28;20404;-77
2021/03/25 06:58:38;;;;;;;3.80;1.53;;;4.10;99.90;;;;;;5055016;28;20470;-78
2021/03/25 07:01:28;;;;;;;3.23;1.50;;;4.20;99.90;;;;;;5054927;28;20411;-78
2021/03/25 07:03:59;;;;;;;5.87;1.47;;;4.30;99.90;;;;;;5057744;28;20406;-78
2021/03/25 07:06:27;;;;;;;1.57;1.40;;;4.40;99.90;;;;;;5056648;28;20397;-78
2021/03/25 07:08:56;;;;;;;2.90;1.60;;;4.60;99.90;;;;;;5056455;28;20448;-79
2021/03/25 07:11:25;;;;;;;3.43;1.53;;;4.70;99.90;;;;;;5055062;28;20902;-80
2021/03/25 07:13:59;;;;;;;3.23;1.47;;;4.90;99.90;;;;;;5069933;28;20435;-77
2021/03/25 07:16:27;;;;;;;2.43;1.30;;;5.00;99.90;;;;;;5072234;28;20543;-78
2021/03/25 07:19:05;;;;;;;4.70;1.70;;;5.10;99.90;;;;;;5073857;28;20428;-77
2021/03/25 07:21:44;;;;;;;3.80;1.57;;;5.30;99.70;;;;;;5073049;28;20641;-78
2021/03/25 07:24:28;;;;;;;4.37;1.90;;;5.40;99.00;;;;;;5074481;28;20410;-78
2021/03/25 07:27:06;;;;;;;2.63;1.60;;;5.70;98.30;;;;;;5073743;28;20211;-77
2021/03/25 07:29:34;;;;;;;1.93;1.50;;;6.30;97.30;;;;;;5073580;28;20315;-78
2021/03/25 07:32:27;;;;;;;1.57;1.30;;;7.10;95.40;;;;;;5073035;28;20193;-78
2021/03/25 07:34:54;;;;;;;4.33;1.50;;;7.80;93.30;;;;;;5075105;28;20428;-78
2021/03/25 07:37:39;;;;;;;2.37;1.73;;;8.50;91.20;;;;;;5075898;28;20433;-79
2021/03/25 07:40:22;;;;;;;3.53;1.70;;;9.20;86.60;;;;;;5078837;28;20179;-79
2021/03/25 07:42:48;;;;;;;5.23;1.93;;;9.30;82.50;;;;;;5077776;28;20178;-79
2021/03/25 07:45:41;;;;;;;2.50;1.80;;;9.40;81.20;;;;;;5080351;28;20204;-79
2021/03/25 07:48:20;;;;;;;1.57;1.47;;;9.90;80.80;;;;;;5072379;28;20212;-78
2021/03/25 07:50:48;;;;;;;3.13;1.70;;;10.50;76.00;;;;;;5077503;28;20574;-78
2021/03/25 07:53:25;;;;;;;2.30;1.80;;;10.40;73.10;;;;;;5078792;28;20173;-79
2021/03/25 07:56:08;;;;;;;1.90;1.50;;;10.70;71.50;;;;;;5078790;28;20165;-78
2021/03/25 07:58:45;;;;;;;2.83;1.70;;;10.30;71.40;;;;;;5059785;28;20231;-78
2021/03/25 08:01:19;;;;;;;3.07;1.73;;;10.40;71.70;;;;;;5057352;28;20207;-78
2021/03/25 08:03:46;;;;;;;4.90;1.80;;;10.60;71.60;;;;;;5056801;28;20642;-78
2021/03/25 08:06:20;;;;;;;2.40;1.60;;;10.80;71.60;;;;;;5057136;28;20589;-78
2021/03/25 08:09:03;;;;;;;2.70;1.50;;;11.20;70.20;;;;;;5058232;28;20209;-78
2021/03/25 08:11:29;;;;;;;2.87;1.63;;;11.60;69.00;;;;;;5060180;28;20235;-78
2021/03/25 08:14:02;;;;;;;2.73;1.50;;;11.90;67.70;;;;;;5062789;28;20185;-78
2021/03/25 08:16:30;;;;;;;4.60;1.97;;;11.80;67.90;;;;;;5059330;28;20170;-78
2021/03/25 08:19:05;;;;;;;3.57;1.60;;;12.10;67.50;;;;;;5060869;28;20207;-78
2021/03/25 08:22:14;;;;;;;2.13;1.60;;;12.30;65.90;;;;;;5062994;28;20169;-78
2021/03/25 08:24:45;;;;;;;4.37;1.60;;;12.60;66.10;;;;;;5055052;28;20189;-78
2021/03/25 08:27:19;;;;;;;1.93;1.63;;;13.30;65.30;;;;;;5063498;28;20196;-78
2021/03/25 08:29:48;;;;;;;5.57;1.73;;;13.70;62.60;;;;;;5063845;28;20256;-78
2021/03/25 08:32:46;;;;;;;5.73;1.97;;;14.00;63.00;;;;;;5063877;28;20284;-78
2021/03/25 08:35:33;;;;;;;5.63;1.80;;;14.80;60.80;;;;;;5060146;28;20190;-78
2021/03/25 08:38:01;;;;;;;4.43;2.13;;;15.60;59.00;;;;;;5066356;28;20197;-78
2021/03/25 08:40:55;;;;;;;7.17;2.43;;;16.20;59.50;;;;;;5066590;28;20629;-79
2021/03/25 08:43:29;;;;;;;4.23;2.50;;;15.90;56.00;;;;;;5064801;28;20296;-78
2021/03/25 08:46:01;;;;;;;4.80;2.80;;;16.20;58.90;;;;;;5063355;28;20166;-79
2021/03/25 08:48:46;;;;;;;3.20;2.50;;;16.70;57.20;;;;;;5062742;28;20202;-78
2021/03/25 08:51:13;;;;;;;3.80;2.40;;;16.80;55.20;;;;;;5063539;28;20179;-78
2021/03/25 08:54:13;;;;;;;9.07;3.93;;;16.90;55.70;;;;;;5063419;28;20170;-78
2021/03/25 08:57:05;;;;;;;7.67;4.93;;;16.90;53.40;;;;;;5063202;28;20238;-78
2021/03/25 08:59:37;;;;;;;7.27;4.63;;;16.70;54.10;;;;;;5063937;28;20165;-79
2021/03/25 09:02:12;;;;;;;6.67;4.97;;;16.50;54.70;;;;;;5064634;28;20254;-78
2021/03/25 09:04:54;;;;;;;6.73;4.67;;;16.10;54.00;;;;;;5059393;28;20175;-77
2021/03/25 09:07:21;;;;;;;6.97;5.00;;;16.00;55.80;;;;;;5060313;28;20245;-78
2021/03/25 09:10:08;;;;;;;8.20;5.57;;;15.90;55.30;;;;;;5059229;28;20661;-79
2021/03/25 09:12:34;;;;;;;10.03;5.37;;;16.20;54.90;;;;;;5059058;28;20273;-79
2021/03/25 09:15:04;;;;;;;8.80;6.13;;;16.40;54.10;;;;;;5058845;28;20193;-77
2021/03/25 09:17:39;;;;;;;10.27;6.20;;;16.20;55.20;;;;;;5061024;28;20252;-78
2021/03/25 09:20:12;;;;;;;9.40;6.23;;;15.90;53.20;;;;;;5058609;28;20244;-78
2021/03/25 09:22:48;;;;;;;9.60;5.80;;;15.70;54.20;;;;;;5058456;28;20170;-78
2021/03/25 09:25:20;;;;;;;9.20;5.83;;;15.50;54.20;;;;;;5058237;28;20599;-78
2021/03/25 09:27:58;;;;;;;10.70;6.53;;;15.50;54.20;;;;;;5057205;28;20259;-77
2021/03/25 09:30:29;;;;;;;9.17;6.30;;;15.50;55.00;;;;;;5058668;28;20227;-78
2021/03/25 09:33:33;;;;;;;10.33;6.53;;;15.90;53.50;;;;;;5058299;28;20191;-78
2021/03/25 09:35:59;;;;;;;8.10;5.77;;;16.00;53.00;;;;;;5058037;28;20157;-78
2021/03/25 09:38:32;;;;;;;10.77;6.50;;;16.30;54.30;;;;;;5057548;28;20259;-77
2021/03/25 09:41:02;;;;;;;8.03;5.67;;;16.40;52.30;;;;;;5058494;28;20212;-80
2021/03/25 09:43:42;;;;;;;6.00;4.77;;;16.30;51.10;;;;;;5057466;28;20174;-78
2021/03/25 09:46:39;;;;;;;7.87;5.77;;;16.20;52.30;;;;;;5057265;28;20639;-78
2021/03/25 09:49:18;;;;;;;7.37;5.80;;;16.50;51.50;;;;;;5056681;28;20240;-77
2021/03/25 09:51:48;;;;;;;7.57;5.80;;;16.70;51.80;;;;;;5056040;28;20169;-78
2021/03/25 09:54:26;;;;;;;7.00;5.40;;;17.00;51.50;;;;;;5057330;28;20201;-78
2021/03/25 09:57:20;;;;;;;8.77;5.77;;;17.20;53.00;;;;;;5057215;28;20189;-77
2021/03/25 09:59:45;;;;;;;7.47;5.40;;;17.40;50.90;;;;;;5057340;28;20192;-78
2021/03/25 10:02:11;;;;;;;7.23;5.57;;;17.80;52.00;;;;;;5057268;28;20182;-77
2021/03/25 10:04:39;;;;;;;6.33;4.90;;;17.90;51.10;;;;;;5057543;28;20207;-78
2021/03/25 10:07:11;;;;;;;5.93;4.17;;;17.80;48.30;;;;;;5056974;28;20575;-78
2021/03/25 10:09:49;;;;;;;6.33;4.73;;;17.80;47.70;;;;;;5057047;28;20198;-78
2021/03/25 10:12:52;;;;;;;6.83;5.30;;;17.70;48.00;;;;;;5055844;28;20185;-78
2021/03/25 10:15:42;;;;;;;7.97;5.67;;;17.90;49.70;;;;;;5057370;28;20290;-78
2021/03/25 10:18:16;;;;;;;9.10;6.03;;;17.60;49.80;;;;;;5055332;28;20581;-78
2021/03/25 10:21:07;;;;;;;11.83;6.53;;;17.30;50.50;;;;;;5056425;28;20197;-78
2021/03/25 10:23:35;;;;;;;8.93;5.80;;;17.20;51.10;;;;;;5057197;28;20208;-78
2021/03/25 10:26:04;;;;;;;6.37;5.07;;;17.50;51.40;;;;;;5055344;28;20203;-78
2021/03/25 10:28:34;;;;;;;8.57;6.37;;;17.90;51.40;;;;;;5056780;28;20220;-78
2021/03/25 10:31:12;;;;;;;7.80;6.33;;;18.20;51.30;;;;;;5057526;28;20161;-77
2021/03/25 10:33:38;;;;;;;8.93;6.00;;;18.50;50.30;;;;;;5054460;28;20651;-78
2021/03/25 10:36:07;;;;;;;8.80;5.80;;;18.60;49.30;;;;;;5056386;28;20171;-78
2021/03/25 10:38:49;;;;;;;9.23;6.07;;;18.70;51.80;;;;;;5057218;28;20212;-78
2021/03/25 10:41:22;;;;;;;6.83;5.90;;;18.60;50.10;;;;;;5057046;28;20530;-77
2021/03/25 10:43:51;;;;;;;6.03;5.40;;;18.10;48.30;;;;;;5056372;28;20204;-78
2021/03/25 10:46:32;;;;;;;8.13;5.83;;;17.70;48.90;;;;;;5057072;28;20182;-77
2021/03/25 10:49:06;;;;;;;8.93;6.17;;;18.00;50.30;;;;;;5056589;28;20220;-78
2021/03/25 10:51:38;;;;;;;8.33;5.90;;;18.20;51.80;;;;;;5055637;28;20604;-78
2021/03/25 10:54:29;;;;;;;7.17;5.20;;;18.60;48.50;;;;;;5057256;28;20242;-78
2021/03/25 10:57:28;;;;;;;10.43;5.67;;;18.60;49.20;;;;;;5052886;28;20265;-77
2021/03/25 11:00:05;;;;;;;8.60;5.47;;;18.60;49.90;;;;;;5054432;28;20541;-78
2021/03/25 11:02:39;;;;;;;6.87;4.93;;;19.00;49.00;;;;;;5056272;28;20633;-77
2021/03/25 11:05:27;;;;;;;6.50;5.67;;;19.30;53.00;;;;;;5056332;28;20376;-78
2021/03/25 11:07:57;;;;;;;8.27;5.60;;;19.40;47.80;;;;;;5056537;28;20209;-78
2021/03/25 11:10:25;;;;;;;7.10;5.07;;;19.30;49.90;;;;;;5055833;28;20527;-78
2021/03/25 11:13:14;;;;;;;6.30;5.30;;;19.30;50.70;;;;;;5054555;28;20201;-78
2021/03/25 11:15:47;;;;;;;5.83;5.23;;;19.30;46.30;;;;;;5054020;28;20713;-78
2021/03/25 11:18:42;;;;;;;6.93;5.50;;;19.20;50.20;;;;;;5056196;28;20217;-78
2021/03/25 11:21:08;;;;;;;5.87;4.43;;;19.30;47.90;;;;;;5055166;28;21886;-79
2021/03/25 11:23:35;;;;;;;5.33;4.63;;;19.10;46.20;;;;;;5074779;28;20188;-78
2021/03/25 11:26:04;;;;;;;8.30;5.53;;;18.90;47.10;;;;;;5077565;28;20177;-79
2021/03/25 11:28:34;;;;;;;6.40;5.37;;;19.30;48.50;;;;;;5073624;28;20249;-77
2021/03/25 11:31:20;;;;;;;6.90;5.70;;;19.40;50.40;;;;;;5059324;28;20174;-77
2021/03/25 11:33:48;;;;;;;7.73;5.67;;;19.80;47.80;;;;;;5054637;28;20166;-78
2021/03/25 11:36:29;;;;;;;7.60;5.80;;;19.80;46.60;;;;;;5064282;28;20178;-78
2021/03/25 11:38:55;;;;;;;5.80;4.80;;;19.80;47.60;;;;;;5054676;28;20164;-78
2021/03/25 11:41:21;;;;;;;9.60;4.97;;;20.00;46.00;;;;;;5077272;28;20183;-79
2021/03/25 11:44:01;;;;;;;10.43;5.57;;;19.30;45.90;;;;;;5074229;28;20177;-78
2021/03/25 11:46:28;;;;;;;7.87;5.23;;;19.10;45.40;;;;;;5070503;28;20549;-77
2021/03/25 11:49:11;;;;;;;5.80;4.53;;;18.90;46.10;;;;;;5065080;28;20214;-78
2021/03/25 11:51:58;;;;;;;6.10;4.83;;;19.20;45.40;;;;;;5077660;28;20191;-78
2021/03/25 11:54:36;;;;;;;8.27;4.10;;;19.20;46.50;;;;;;5079957;28;20209;-78
2021/03/25 11:57:24;;;;;;;6.57;5.17;;;19.00;45.30;;;;;;5062653;28;20246;-77
2021/03/25 12:00:11;;;;;;;5.80;5.00;;;19.20;44.90;;;;;;5054135;28;20598;-78
2021/03/25 12:02:38;;;;;;;7.77;4.90;;;19.00;45.50;;;;;;5065687;28;20164;-77
2021/03/25 12:05:30;;;;;;;6.80;5.43;;;19.20;44.70;;;;;;5060055;28;20172;-78
2021/03/25 12:08:17;;;;;;;7.70;4.90;;;19.50;45.00;;;;;;5066288;28;20241;-78
2021/03/25 12:10:43;;;;;;;5.83;4.60;;;19.90;47.10;;;;;;5060328;28;20174;-77
2021/03/25 12:13:11;;;;;;;7.33;5.43;;;20.30;45.30;;;;;;5058167;28;20275;-77
2021/03/25 12:15:37;;;;;;;7.50;5.03;;;20.30;44.00;;;;;;5057160;28;20205;-77
2021/03/25 12:18:17;;;;;;;6.80;5.37;;;19.90;43.70;;;;;;5057083;28;20207;-78
2021/03/25 12:20:43;;;;;;;9.93;4.97;;;20.10;44.60;;;;;;5059795;28;20166;-78
2021/03/25 12:23:22;;;;;;;6.80;5.50;;;20.20;45.10;;;;;;5060660;28;20201;-78
2021/03/25 12:25:51;;;;;;;8.07;4.60;;;20.70;45.20;;;;;;5082237;28;20229;-78
2021/03/25 12:28:17;;;;;;;8.40;4.70;;;20.90;44.70;;;;;;5066017;28;20285;-77
2021/03/25 12:30:44;;;;;;;6.20;3.93;;;21.00;45.80;;;;;;5057551;28;20183;-78
2021/03/25 12:33:25;;;;;;;6.17;3.60;;;21.00;42.00;;;;;;5066198;28;20511;-79
2021/03/25 12:35:52;;;;;;;6.83;3.77;;;20.90;40.70;;;;;;5062184;28;20171;-80
2021/03/25 12:38:18;;;;;;;4.23;2.90;;;21.00;40.20;;;;;;5061547;28;20739;-79
2021/03/25 12:40:44;;;;;;;3.97;3.23;;;20.90;39.30;;;;;;5063459;28;20253;-79
2021/03/25 12:43:15;;;;;;;4.30;3.60;;;20.60;38.90;;;;;;5062758;28;20254;-78
2021/03/25 12:45:43;;;;;;;3.90;3.20;;;20.50;39.40;;;;;;5061682;28;20171;-78
2021/03/25 12:48:10;;;;;;;3.60;3.30;;;20.80;41.20;;;;;;5061136;28;20198;-79
2021/03/25 12:50:36;;;;;;;5.43;3.90;;;21.80;42.70;;;;;;5068429;28;20173;-78
2021/03/25 12:53:04;;;;;;;5.17;3.77;;;21.90;38.50;;;;;;5080267;28;20496;-79
2021/03/25 12:55:30;;;;;;;4.97;3.70;;;21.70;38.80;;;;;;5081237;28;20169;-79
2021/03/25 12:57:56;;;;;;;4.47;3.50;;;22.10;41.40;;;;;;5077205;28;20331;-79
2021/03/25 13:00:27;;;;;;;3.87;2.93;;;22.50;38.10;;;;;;5059023;28;20565;-78
2021/03/25 13:02:54;;;;;;;3.33;2.80;;;22.50;37.30;;;;;;5077638;28;20248;-76
2021/03/25 13:05:21;;;;;;;3.23;2.57;;;21.80;37.00;;;;;;5079952;28;20169;-78
2021/03/25 13:07:48;;;;;;;3.53;2.70;;;21.70;38.60;;;;;;5081814;28;20524;-79
2021/03/25 13:10:17;;;;;;;3.40;2.77;;;22.00;37.80;;;;;;5082388;28;20719;-78
2021/03/25 13:12:43;;;;;;;4.63;3.63;;;22.40;37.20;;;;;;5084840;28;20176;-78
2021/03/25 13:15:09;;;;;;;3.43;2.97;;;21.90;37.30;;;;;;5082331;28;20173;-80
2021/03/25 13:17:34;;;;;;;3.57;2.97;;;22.10;36.50;;;;;;5083499;28;20210;-78
2021/03/25 13:20:00;;;;;;;5.67;3.30;;;21.90;35.50;;;;;;5067807;28;20666;-78
2021/03/25 13:22:27;;;;;;;4.07;3.40;;;22.40;36.90;;;;;;5061239;28;20248;-80
2021/03/25 13:24:53;;;;;;;3.83;3.00;;;22.80;36.10;;;;;;5068287;28;20180;-78
2021/03/25 13:27:19;;;;;;;3.67;2.63;;;22.20;35.60;;;;;;5080684;28;20202;-79
2021/03/25 13:29:45;;;;;;;4.30;2.93;;;21.70;33.70;;;;;;5067263;28;20204;-79
2021/03/25 13:32:11;;;;;;;3.80;2.90;;;21.80;34.70;;;;;;5080300;28;20528;-79